Time;durP1;ratioP1;P1;durP2;ratioP2;P2;SDS_P1;SDS_P2;PMS_P1;PMS_P2;Temp;Humidity;BMP_temperature;BMP_pressure;BME280_temperature;BME280_humidity;BME280_pressure;Samples;Min_cycle;Max_cycle;Signal;HPM_P1;HPM_P2
2022/01/25 00:15:03;;;;;;;5.72;3.35;;;2.00;99.90;;;;;;4932671;29;20406;-76
2022/01/25 00:25:05;;;;;;;5.55;2.70;;;2.00;99.90;;;;;;4931905;29;20448;-76
2022/01/25 00:27:49;;;;;;;6.50;2.80;;;2.00;99.90;;;;;;4931951;29;20048;-76
2022/01/25 00:33:04;;;;;;;4.00;2.10;;;2.10;99.90;;;;;;4913639;29;20048;-76
2022/01/25 00:35:33;;;;;;;4.13;2.50;;;2.10;99.90;;;;;;4931213;29;20403;-77
2022/01/25 00:38:03;;;;;;;6.05;2.20;;;2.10;99.90;;;;;;4932340;29;20054;-76
2022/01/25 00:40:32;;;;;;;10.20;2.83;;;2.10;99.90;;;;;;4929877;29;20051;-76
2022/01/25 00:43:00;;;;;;;5.70;2.22;;;2.10;99.90;;;;;;4931497;29;20071;-76
2022/01/25 00:45:29;;;;;;;6.78;2.60;;;2.10;99.90;;;;;;4933719;29;20553;-77
2022/01/25 00:47:57;;;;;;;4.73;2.17;;;2.10;99.90;;;;;;4930884;29;20434;-76
2022/01/25 00:50:31;;;;;;;7.13;2.60;;;2.10;99.90;;;;;;4928348;29;20046;-77
2022/01/25 00:55:47;;;;;;;4.15;3.10;;;2.10;99.90;;;;;;4930031;29;20102;-77
2022/01/25 00:58:16;;;;;;;6.53;2.97;;;2.00;99.90;;;;;;4915082;29;20409;-76
2022/01/25 01:00:47;;;;;;;3.53;2.00;;;2.00;99.90;;;;;;4931584;29;20443;-76
2022/01/25 01:03:17;;;;;;;4.07;1.88;;;2.10;99.90;;;;;;4931674;29;20048;-76
2022/01/25 01:05:46;;;;;;;6.38;3.08;;;2.00;99.90;;;;;;4931308;29;20059;-76
2022/01/25 01:08:17;;;;;;;7.70;2.22;;;1.90;99.90;;;;;;4933203;29;20044;-77
2022/01/25 01:10:47;;;;;;;6.28;1.85;;;1.90;99.90;;;;;;4932652;29;20410;-76
2022/01/25 01:16:28;;;;;;;7.78;2.47;;;1.80;99.90;;;;;;4928268;28;20467;-76
2022/01/25 01:30:39;;;;;;;8.20;4.10;;;1.60;99.90;;;;;;4932133;29;20071;-75
2022/01/25 01:33:33;;;;;;;7.32;2.42;;;1.60;99.90;;;;;;4934084;29;20063;-76
2022/01/25 01:36:45;;;;;;;11.02;3.72;;;1.60;99.90;;;;;;4932329;29;20043;-76
2022/01/25 01:45:07;;;;;;;5.25;3.00;;;1.60;99.90;;;;;;4935537;29;20056;-76
2022/01/25 01:47:41;;;;;;;5.53;2.08;;;1.50;99.90;;;;;;4935670;29;20048;-76
2022/01/25 01:50:14;;;;;;;5.10;2.28;;;1.50;99.90;;;;;;4934299;29;20055;-76
2022/01/25 01:52:43;;;;;;;5.25;3.20;;;1.50;99.90;;;;;;4933955;29;20048;-76
2022/01/25 01:55:12;;;;;;;9.30;3.37;;;1.50;99.90;;;;;;4934605;29;20044;-76
2022/01/25 01:58:10;;;;;;;6.95;2.58;;;1.50;99.90;;;;;;4933964;29;20056;-75
2022/01/25 02:00:47;;;;;;;5.30;2.70;;;1.60;99.90;;;;;;4932412;29;20051;-76
2022/01/25 02:03:16;;;;;;;6.55;2.72;;;1.60;99.90;;;;;;4933606;29;20075;-75
2022/01/25 02:05:45;;;;;;;5.32;1.95;;;1.50;99.90;;;;;;4932583;29;20055;-76
2022/01/25 02:08:15;;;;;;;6.20;2.30;;;1.50;99.90;;;;;;4936466;29;20052;-76
2022/01/25 02:10:44;;;;;;;5.03;2.83;;;1.50;99.90;;;;;;4933902;29;20071;-76
2022/01/25 02:13:14;;;;;;;12.25;4.22;;;1.50;99.90;;;;;;4934107;29;20063;-76
2022/01/25 02:15:45;;;;;;;3.92;2.20;;;1.50;99.90;;;;;;4932755;29;20487;-76
2022/01/25 02:23:51;;;;;;;4.85;2.40;;;1.60;99.90;;;;;;4933921;29;20123;-76
2022/01/25 02:26:21;;;;;;;5.57;2.75;;;1.60;99.90;;;;;;4930649;29;20134;-76
2022/01/25 02:28:51;;;;;;;6.35;3.17;;;1.60;99.90;;;;;;4925079;29;20060;-76
2022/01/25 02:31:20;;;;;;;6.47;3.25;;;1.60;99.90;;;;;;4914001;29;20055;-76
2022/01/25 02:33:49;;;;;;;6.37;3.23;;;1.60;99.90;;;;;;4914715;29;20543;-76
2022/01/25 02:36:26;;;;;;;7.57;2.58;;;1.50;99.90;;;;;;4913584;29;20043;-76
2022/01/25 02:38:55;;;;;;;12.65;3.72;;;1.50;99.90;;;;;;4914673;29;20048;-76
2022/01/25 02:41:25;;;;;;;6.22;2.53;;;1.50;99.90;;;;;;4914550;29;20048;-76
2022/01/25 02:43:53;;;;;;;6.72;2.58;;;1.40;99.90;;;;;;4914366;29;20056;-76
2022/01/25 02:48:29;;;;;;;3.53;2.30;;;1.30;99.90;;;;;;4914522;29;20555;-76
2022/01/25 02:49:13;;;;;;;3.65;1.70;;;1.30;99.90;;;;;;4914754;29;20120;-76
2022/01/25 02:51:45;;;;;;;6.10;3.65;;;1.30;99.90;;;;;;4911484;29;20047;-76
2022/01/25 02:54:15;;;;;;;5.20;2.83;;;1.30;99.90;;;;;;4898158;29;20072;-76
2022/01/25 02:56:46;;;;;;;6.85;2.25;;;1.30;99.90;;;;;;4915258;29;20075;-76
2022/01/25 02:59:17;;;;;;;8.30;2.63;;;1.30;99.90;;;;;;4914526;29;20119;-76
2022/01/25 03:01:48;;;;;;;6.60;3.63;;;1.30;99.90;;;;;;4912964;29;20059;-76
2022/01/25 03:07:14;;;;;;;5.60;3.08;;;1.30;99.90;;;;;;4912055;29;20043;-76
2022/01/25 03:09:42;;;;;;;6.47;2.45;;;1.30;99.90;;;;;;4912725;29;20043;-76
2022/01/25 03:12:17;;;;;;;5.87;2.67;;;1.30;99.90;;;;;;4914706;29;20055;-76
2022/01/25 03:15:10;;;;;;;4.40;3.00;;;1.20;99.90;;;;;;4911715;29;20484;-76
2022/01/25 03:17:45;;;;;;;5.28;2.53;;;1.20;99.90;;;;;;4914062;29;20055;-76
2022/01/25 03:20:33;;;;;;;5.90;2.70;;;1.10;99.90;;;;;;4914411;29;20048;-76
2022/01/25 03:23:17;;;;;;;10.15;3.20;;;1.10;99.90;;;;;;4913931;29;20050;-76
2022/01/25 03:25:47;;;;;;;9.30;2.30;;;1.10;99.90;;;;;;4912060;29;20123;-75
2022/01/25 03:28:16;;;;;;;4.88;2.92;;;1.10;99.90;;;;;;4916474;29;20052;-76
2022/01/25 03:30:45;;;;;;;6.50;2.70;;;1.20;99.90;;;;;;4933537;29;20036;-76
2022/01/25 03:33:18;;;;;;;6.75;3.55;;;1.10;99.90;;;;;;4932919;29;20064;-76
2022/01/25 03:35:47;;;;;;;10.00;3.85;;;1.20;99.90;;;;;;4932909;29;20059;-75
2022/01/25 03:38:17;;;;;;;4.27;3.07;;;1.20;99.90;;;;;;4934364;29;20043;-76
2022/01/25 03:40:46;;;;;;;7.00;3.97;;;1.20;99.90;;;;;;4934162;29;20048;-76
2022/01/25 03:43:15;;;;;;;5.47;2.60;;;1.20;99.90;;;;;;4917874;29;20046;-76
2022/01/25 03:45:57;;;;;;;7.28;2.20;;;1.20;99.90;;;;;;4932366;29;20071;-76
2022/01/25 03:51:14;;;;;;;5.50;2.60;;;1.20;99.90;;;;;;4933155;29;20036;-76
2022/01/25 03:53:45;;;;;;;5.22;2.60;;;1.00;99.90;;;;;;4933540;29;20067;-75
2022/01/25 03:56:13;;;;;;;5.32;2.55;;;1.00;99.90;;;;;;4933859;29;21087;-76
2022/01/25 03:58:42;;;;;;;6.82;3.42;;;1.00;99.90;;;;;;4933527;29;20521;-76
2022/01/25 04:01:14;;;;;;;7.75;3.10;;;1.10;99.90;;;;;;4934583;29;20048;-76
2022/01/25 04:03:56;;;;;;;6.10;2.83;;;1.10;99.90;;;;;;4933948;29;20047;-76
2022/01/25 04:06:29;;;;;;;4.07;2.40;;;1.10;99.90;;;;;;4933182;29;20483;-76
2022/01/25 04:09:00;;;;;;;10.50;2.88;;;1.10;99.90;;;;;;4933278;29;20056;-76
2022/01/25 04:11:29;;;;;;;3.90;2.30;;;1.00;99.90;;;;;;4929379;29;20148;-76
2022/01/25 04:13:58;;;;;;;8.73;2.83;;;1.00;99.90;;;;;;4933550;29;20047;-76
2022/01/25 04:16:32;;;;;;;4.97;1.93;;;1.00;99.90;;;;;;4932627;29;20055;-76
2022/01/25 04:19:08;;;;;;;7.75;2.60;;;1.00;99.90;;;;;;4931947;29;20122;-76
2022/01/25 04:25:13;;;;;;;6.88;2.92;;;0.90;99.90;;;;;;4929252;29;20040;-76
2022/01/25 04:27:42;;;;;;;8.02;2.25;;;1.00;99.90;;;;;;4931301;29;20103;-76
2022/01/25 04:30:17;;;;;;;7.07;3.23;;;1.00;99.90;;;;;;4915695;29;20104;-76
2022/01/25 04:32:49;;;;;;;7.40;2.70;;;1.00;99.90;;;;;;4914686;29;20131;-76
2022/01/25 04:35:40;;;;;;;4.80;2.25;;;1.00;99.90;;;;;;4914292;29;20056;-76
2022/01/25 04:49:18;;;;;;;8.05;3.05;;;0.80;99.90;;;;;;4900413;29;20118;-76
2022/01/25 04:51:58;;;;;;;8.45;3.13;;;0.80;99.90;;;;;;4916614;29;20044;-76
2022/01/25 04:54:41;;;;;;;8.27;2.00;;;0.80;99.90;;;;;;4917175;29;20048;-76
2022/01/25 04:57:23;;;;;;;6.83;2.93;;;0.70;99.90;;;;;;4915722;29;20494;-76
2022/01/25 04:59:59;;;;;;;6.22;3.28;;;0.60;99.90;;;;;;4905398;29;20127;-76
2022/01/25 05:02:38;;;;;;;10.05;2.58;;;0.70;99.90;;;;;;4918339;29;20052;-76
2022/01/25 05:05:13;;;;;;;6.40;2.63;;;0.70;99.90;;;;;;4916115;29;20048;-76
2022/01/25 05:07:49;;;;;;;5.28;2.75;;;0.70;99.90;;;;;;4915693;29;20036;-75
2022/01/25 05:10:51;;;;;;;6.27;2.10;;;0.60;99.90;;;;;;4915842;29;20051;-76
2022/01/25 05:13:38;;;;;;;5.25;2.13;;;0.70;99.90;;;;;;4914756;29;20047;-76
2022/01/25 05:16:28;;;;;;;5.07;1.95;;;0.70;99.90;;;;;;4916435;29;20044;-76
2022/01/25 05:19:08;;;;;;;4.55;2.42;;;0.70;99.90;;;;;;4914695;29;20044;-76
2022/01/25 05:22:28;;;;;;;4.53;2.40;;;0.80;99.90;;;;;;4915930;29;20055;-76
2022/01/25 05:24:57;;;;;;;4.47;2.17;;;0.80;99.90;;;;;;4913253;29;20048;-76
2022/01/25 05:27:30;;;;;;;7.60;2.88;;;0.80;99.90;;;;;;4915395;29;20126;-74
2022/01/25 05:30:00;;;;;;;5.85;2.60;;;0.80;99.90;;;;;;4930687;29;20119;-75
2022/01/25 05:32:32;;;;;;;4.38;1.77;;;0.80;99.90;;;;;;4934511;29;20557;-75
2022/01/25 05:35:02;;;;;;;6.03;2.78;;;0.80;99.90;;;;;;4934282;29;20047;-75
2022/01/25 05:37:32;;;;;;;6.87;3.17;;;0.80;99.90;;;;;;4934167;29;20384;-77
2022/01/25 05:40:01;;;;;;;10.15;3.15;;;0.90;99.90;;;;;;4935689;29;20071;-74
2022/01/25 05:45:56;;;;;;;4.05;2.30;;;0.80;99.90;;;;;;4935620;29;20057;-75
2022/01/25 05:48:24;;;;;;;3.38;1.92;;;0.80;99.90;;;;;;4935624;29;20052;-74
2022/01/25 05:50:53;;;;;;;7.83;2.30;;;0.70;99.90;;;;;;4933488;29;20410;-77
2022/01/25 05:53:22;;;;;;;5.93;2.92;;;0.70;99.90;;;;;;4931689;29;20043;-73
2022/01/25 05:56:17;;;;;;;6.65;2.72;;;0.80;99.90;;;;;;4936764;29;20084;-75
2022/01/25 05:58:46;;;;;;;6.90;3.85;;;0.80;99.90;;;;;;4932897;29;20158;-78
2022/01/25 06:05:33;;;;;;;9.03;2.63;;;0.90;99.90;;;;;;4926770;29;20054;-79
2022/01/25 06:08:22;;;;;;;7.72;4.30;;;1.00;99.90;;;;;;4938863;29;20051;-79
2022/01/25 06:11:17;;;;;;;12.40;4.55;;;1.10;99.90;;;;;;4940160;29;20122;-72
2022/01/25 06:13:46;;;;;;;13.10;4.55;;;1.00;99.90;;;;;;4934252;29;20051;-72
2022/01/25 06:16:17;;;;;;;5.82;3.95;;;1.00;99.90;;;;;;4917383;29;20561;-76
2022/01/25 06:18:46;;;;;;;12.43;4.60;;;1.10;99.90;;;;;;4920725;29;20549;-76
2022/01/25 06:21:19;;;;;;;8.50;4.32;;;1.10;99.90;;;;;;4917711;29;20047;-76
2022/01/25 06:23:47;;;;;;;10.05;4.13;;;1.10;99.90;;;;;;4934674;29;20051;-75
2022/01/25 06:26:17;;;;;;;11.13;3.88;;;1.20;99.90;;;;;;4904724;29;20047;-76
2022/01/25 06:28:46;;;;;;;12.00;5.07;;;1.10;99.90;;;;;;4918126;29;20052;-76
2022/01/25 06:31:19;;;;;;;10.17;4.03;;;1.20;99.90;;;;;;4917048;29;20052;-75
2022/01/25 06:33:48;;;;;;;12.68;4.25;;;1.20;99.90;;;;;;4914844;29;20058;-75
2022/01/25 06:36:19;;;;;;;12.77;4.55;;;1.20;99.90;;;;;;4917216;29;20455;-75
2022/01/25 06:38:47;;;;;;;11.73;4.03;;;1.20;99.90;;;;;;4917221;29;20048;-75
2022/01/25 06:41:17;;;;;;;11.98;4.03;;;1.10;99.90;;;;;;4917610;29;20491;-76
2022/01/25 06:43:46;;;;;;;14.60;4.47;;;1.20;99.90;;;;;;4916525;29;20044;-76
2022/01/25 06:46:21;;;;;;;10.20;4.50;;;1.20;99.90;;;;;;4915997;29;20126;-75
2022/01/25 06:48:51;;;;;;;10.40;4.28;;;1.30;99.90;;;;;;4920232;29;20063;-76
2022/01/25 06:51:23;;;;;;;5.78;3.25;;;1.30;99.90;;;;;;4902120;29;20048;-75
2022/01/25 06:53:52;;;;;;;14.85;5.43;;;1.40;99.90;;;;;;4918695;29;20407;-76
2022/01/25 06:56:22;;;;;;;14.00;5.43;;;1.40;99.90;;;;;;4919709;29;20040;-75
2022/01/25 06:58:51;;;;;;;18.67;5.97;;;1.40;99.90;;;;;;4931835;29;20554;-75
2022/01/25 07:01:21;;;;;;;12.18;4.57;;;1.40;99.90;;;;;;4916611;29;20051;-75
2022/01/25 07:03:53;;;;;;;18.48;5.05;;;1.40;99.90;;;;;;4937448;29;20462;-76
2022/01/25 07:06:24;;;;;;;18.88;4.88;;;1.50;99.90;;;;;;4912765;29;20048;-75
2022/01/25 07:08:54;;;;;;;10.17;3.90;;;1.50;99.90;;;;;;4900785;29;20040;-75
2022/01/25 07:11:24;;;;;;;10.82;3.75;;;1.50;99.90;;;;;;4916568;29;20402;-74
2022/01/25 07:13:56;;;;;;;10.23;3.47;;;1.50;99.90;;;;;;4908179;29;20410;-75
2022/01/25 07:16:26;;;;;;;8.30;3.20;;;1.50;99.90;;;;;;4914597;29;21190;-75
2022/01/25 07:18:55;;;;;;;8.52;3.53;;;1.50;99.90;;;;;;4898743;29;20047;-76
2022/01/25 07:21:26;;;;;;;11.47;3.17;;;1.50;99.90;;;;;;4918472;29;20048;-76
2022/01/25 07:23:55;;;;;;;9.65;4.10;;;1.60;99.90;;;;;;4917120;29;20071;-76
2022/01/25 07:26:26;;;;;;;12.05;5.32;;;1.60;99.90;;;;;;4916916;29;20066;-76
2022/01/25 07:28:54;;;;;;;14.70;3.97;;;1.60;99.90;;;;;;4919717;29;20557;-75
2022/01/25 07:31:24;;;;;;;9.73;3.92;;;1.60;99.90;;;;;;4932526;29;20047;-75
2022/01/25 07:34:04;;;;;;;9.80;4.03;;;1.50;99.90;;;;;;4919870;29;20054;-75
2022/01/25 07:36:39;;;;;;;11.68;3.80;;;1.50;99.90;;;;;;4917220;29;20510;-76
2022/01/25 07:39:22;;;;;;;12.20;5.35;;;1.50;99.90;;;;;;4914162;29;20134;-75
2022/01/25 07:41:53;;;;;;;10.73;3.63;;;1.60;99.90;;;;;;4916229;29;20545;-74
2022/01/25 07:44:31;;;;;;;15.85;5.15;;;1.60;99.90;;;;;;4915227;29;20054;-75
2022/01/25 07:47:01;;;;;;;11.83;4.53;;;1.60;99.90;;;;;;4917276;29;20127;-75
2022/01/25 07:49:32;;;;;;;11.75;3.97;;;1.50;99.90;;;;;;4916595;29;20082;-75
2022/01/25 07:52:07;;;;;;;15.13;5.22;;;1.60;99.90;;;;;;4914665;29;20047;-75
2022/01/25 07:54:37;;;;;;;12.55;4.20;;;1.60;99.90;;;;;;4911267;29;20046;-75
2022/01/25 07:57:09;;;;;;;17.30;4.50;;;1.60;99.90;;;;;;4927671;29;20060;-75
2022/01/25 07:59:39;;;;;;;11.47;5.00;;;1.70;99.90;;;;;;4917626;29;20072;-75
2022/01/25 08:02:08;;;;;;;11.07;3.67;;;1.60;99.90;;;;;;4899353;29;20043;-75
2022/01/25 08:04:55;;;;;;;15.00;5.03;;;1.50;99.90;;;;;;4915651;29;20409;-75
2022/01/25 08:07:27;;;;;;;12.63;4.78;;;1.50;99.90;;;;;;4901605;29;20166;-76
2022/01/25 08:10:01;;;;;;;7.05;3.42;;;1.60;99.90;;;;;;4917643;29;20487;-75
2022/01/25 08:13:03;;;;;;;14.93;5.30;;;1.60;99.90;;;;;;4936389;29;20036;-75
2022/01/25 08:15:49;;;;;;;10.45;3.78;;;1.60;99.90;;;;;;4931011;29;20051;-75
2022/01/25 08:18:41;;;;;;;9.32;3.55;;;1.60;99.90;;;;;;4860933;29;20058;-75
2022/01/25 08:21:26;;;;;;;9.82;3.83;;;1.60;99.90;;;;;;4853022;29;20049;-74
2022/01/25 08:24:13;;;;;;;13.60;4.53;;;1.70;99.90;;;;;;4819337;29;20045;-75
2022/01/25 08:26:44;;;;;;;11.43;4.50;;;1.70;99.90;;;;;;4846005;29;20048;-75
2022/01/25 08:29:19;;;;;;;15.68;5.63;;;1.60;99.90;;;;;;4845019;29;20139;-75
2022/01/25 08:31:53;;;;;;;17.35;4.15;;;1.60;99.90;;;;;;4859964;29;20057;-75
2022/01/25 08:34:41;;;;;;;12.10;4.43;;;1.70;99.90;;;;;;4859760;29;20064;-76
2022/01/25 08:37:14;;;;;;;9.20;4.32;;;1.60;99.90;;;;;;4846413;29;20052;-75
2022/01/25 08:40:03;;;;;;;8.47;3.53;;;1.70;99.90;;;;;;4853812;29;20113;-75
2022/01/25 08:42:40;;;;;;;20.77;4.20;;;1.70;99.90;;;;;;4857140;29;20049;-75
2022/01/25 08:45:16;;;;;;;11.68;6.07;;;1.80;99.90;;;;;;4858436;29;20102;-75
2022/01/25 08:48:02;;;;;;;13.63;3.75;;;1.70;99.90;;;;;;4857251;29;20169;-76
2022/01/25 08:50:45;;;;;;;12.82;4.70;;;1.70;99.90;;;;;;4843028;29;20045;-75
2022/01/25 08:53:29;;;;;;;12.47;5.10;;;1.70;99.90;;;;;;4839391;29;20516;-75
2022/01/25 08:56:18;;;;;;;15.55;5.00;;;1.80;99.90;;;;;;4884569;29;20048;-75
2022/01/25 08:59:25;;;;;;;8.15;4.10;;;1.80;99.90;;;;;;4888841;29;20048;-75
2022/01/25 09:01:55;;;;;;;9.57;4.15;;;1.70;99.90;;;;;;4901110;29;20048;-75
2022/01/25 09:04:25;;;;;;;15.65;5.88;;;1.70;99.90;;;;;;4896759;29;20135;-74
2022/01/25 09:06:53;;;;;;;16.73;4.87;;;1.70;99.90;;;;;;4901990;29;20141;-75
2022/01/25 09:09:21;;;;;;;15.18;5.80;;;1.60;99.90;;;;;;4900266;29;20048;-75
2022/01/25 09:11:52;;;;;;;12.63;4.55;;;1.60;99.90;;;;;;4899767;29;20073;-74
2022/01/25 09:14:21;;;;;;;13.00;4.88;;;1.50;99.90;;;;;;4898288;29;20044;-74
2022/01/25 09:16:51;;;;;;;11.32;4.55;;;1.40;99.90;;;;;;4882208;29;20040;-75
2022/01/25 09:19:20;;;;;;;18.90;5.93;;;1.50;99.90;;;;;;4883687;29;20044;-75
2022/01/25 09:21:49;;;;;;;15.23;5.43;;;1.50;99.90;;;;;;4895869;29;20036;-73
2022/01/25 09:24:19;;;;;;;14.32;5.65;;;1.60;99.90;;;;;;4910556;29;20052;-75
2022/01/25 09:26:48;;;;;;;17.35;4.68;;;1.70;99.90;;;;;;4882997;29;20052;-75
2022/01/25 09:29:21;;;;;;;13.55;6.32;;;1.80;99.90;;;;;;4893339;29;20100;-75
2022/01/25 09:31:51;;;;;;;12.43;4.50;;;1.80;99.90;;;;;;4918195;29;20044;-76
2022/01/25 09:34:25;;;;;;;17.98;6.38;;;1.80;99.90;;;;;;4920049;29;20044;-75
2022/01/25 09:36:55;;;;;;;18.88;5.53;;;1.80;99.90;;;;;;4917744;29;20044;-75
2022/01/25 09:39:24;;;;;;;21.35;6.57;;;2.00;99.90;;;;;;4918112;29;20052;-75
2022/01/25 09:41:54;;;;;;;14.75;6.15;;;1.90;99.90;;;;;;4921930;29;20043;-75
2022/01/25 09:44:24;;;;;;;16.37;4.50;;;1.80;99.90;;;;;;4903871;29;20043;-75
2022/01/25 09:46:56;;;;;;;17.48;4.93;;;1.90;99.90;;;;;;4918996;29;20415;-74
2022/01/25 09:49:26;;;;;;;16.52;5.63;;;1.90;99.90;;;;;;4934492;29;20533;-75
2022/01/25 09:51:57;;;;;;;23.75;7.45;;;1.90;99.90;;;;;;4918216;29;20494;-74
2022/01/25 09:54:26;;;;;;;20.38;5.45;;;1.70;99.90;;;;;;4913826;29;20098;-74
2022/01/25 09:56:56;;;;;;;9.37;4.33;;;1.50;99.90;;;;;;4918871;29;20040;-75
2022/01/25 09:59:26;;;;;;;12.45;4.88;;;1.50;99.90;;;;;;4902923;29;20060;-74
2022/01/25 10:01:58;;;;;;;19.00;6.90;;;1.60;99.90;;;;;;4917884;29;20047;-75
2022/01/25 10:04:33;;;;;;;13.30;6.45;;;1.70;99.90;;;;;;4919801;29;20079;-75
2022/01/25 10:07:05;;;;;;;11.73;4.78;;;1.80;99.90;;;;;;4918408;29;20050;-75
2022/01/25 10:09:39;;;;;;;16.73;4.83;;;1.90;99.90;;;;;;4918101;29;20063;-75
2022/01/25 10:12:18;;;;;;;17.73;5.65;;;1.90;99.90;;;;;;4917800;29;20074;-75
2022/01/25 10:18:16;;;;;;;15.95;6.15;;;1.60;99.90;;;;;;4918253;29;20075;-74
2022/01/25 10:20:49;;;;;;;15.55;7.10;;;1.60;99.90;;;;;;4916965;29;20078;-74
2022/01/25 10:23:22;;;;;;;25.47;6.77;;;1.60;99.90;;;;;;4934115;29;20058;-75
2022/01/25 10:25:52;;;;;;;15.02;7.88;;;1.80;99.90;;;;;;4902075;29;20589;-75
2022/01/25 10:28:25;;;;;;;14.73;3.92;;;1.70;99.90;;;;;;4919978;29;20115;-75
2022/01/25 10:30:59;;;;;;;14.73;4.70;;;1.80;99.90;;;;;;4917974;29;20079;-75
2022/01/25 10:33:35;;;;;;;12.90;4.72;;;1.80;99.90;;;;;;4915496;29;20052;-75
2022/01/25 10:36:21;;;;;;;20.03;8.10;;;1.70;99.90;;;;;;4919234;29;20376;-75
2022/01/25 10:38:54;;;;;;;17.08;4.68;;;1.60;99.90;;;;;;4916476;29;20056;-75
2022/01/25 10:41:31;;;;;;;22.63;5.20;;;1.60;99.90;;;;;;4916503;29;20043;-74
2022/01/25 10:44:01;;;;;;;16.05;5.65;;;1.60;99.90;;;;;;4931979;29;20055;-74
2022/01/25 10:46:33;;;;;;;20.05;6.82;;;1.50;99.90;;;;;;4918771;29;20518;-75
2022/01/25 10:49:05;;;;;;;11.90;4.67;;;1.60;99.90;;;;;;4902111;29;20182;-75
2022/01/25 10:51:38;;;;;;;19.85;7.18;;;1.80;99.90;;;;;;4916716;29;20051;-75
2022/01/25 10:54:10;;;;;;;15.02;4.78;;;1.60;99.90;;;;;;4920052;29;20052;-76
2022/01/25 10:56:43;;;;;;;21.50;5.90;;;1.80;99.90;;;;;;4917733;29;20083;-74
2022/01/25 10:59:18;;;;;;;16.73;7.18;;;1.70;99.90;;;;;;4922043;29;20043;-74
2022/01/25 11:01:53;;;;;;;21.57;5.33;;;1.60;99.90;;;;;;4917425;29;20055;-75
2022/01/25 11:04:25;;;;;;;19.45;5.22;;;1.60;99.90;;;;;;4919679;29;20058;-75
2022/01/25 11:07:01;;;;;;;16.60;6.15;;;1.70;99.90;;;;;;4931936;29;20048;-75
2022/01/25 11:09:37;;;;;;;17.95;4.50;;;1.70;99.90;;;;;;4933986;29;20115;-75
2022/01/25 11:12:09;;;;;;;12.02;4.05;;;1.70;99.90;;;;;;4928736;29;20122;-77
2022/01/25 11:15:04;;;;;;;17.87;5.07;;;1.60;99.90;;;;;;4914253;29;20039;-74
2022/01/25 11:17:40;;;;;;;15.45;6.50;;;1.50;99.90;;;;;;4917389;29;20051;-76
2022/01/25 11:20:12;;;;;;;24.90;5.25;;;1.60;99.90;;;;;;4917271;29;20043;-75
2022/01/25 11:22:41;;;;;;;16.75;5.47;;;1.70;99.90;;;;;;4915871;29;20048;-75
2022/01/25 11:25:10;;;;;;;13.00;6.45;;;1.70;99.90;;;;;;4904449;29;20050;-76
2022/01/25 11:27:42;;;;;;;17.43;6.20;;;1.60;99.90;;;;;;4917126;29;20044;-76
2022/01/25 11:33:11;;;;;;;11.60;6.15;;;1.80;99.90;;;;;;4917382;29;20075;-76
2022/01/25 11:35:45;;;;;;;20.15;7.63;;;1.90;99.90;;;;;;4901904;29;20043;-75
2022/01/25 11:38:14;;;;;;;19.33;7.40;;;2.00;99.90;;;;;;4901937;29;20054;-76
2022/01/25 11:40:47;;;;;;;15.03;6.23;;;2.20;99.90;;;;;;4914948;29;20124;-75
2022/01/25 11:43:18;;;;;;;20.58;6.90;;;2.20;99.90;;;;;;4916615;29;20094;-75
2022/01/25 11:45:49;;;;;;;18.73;6.65;;;2.10;99.90;;;;;;4919816;29;20055;-76
2022/01/25 11:48:23;;;;;;;21.50;6.53;;;2.20;99.90;;;;;;4916680;29;20046;-75
2022/01/25 11:50:52;;;;;;;18.80;6.40;;;2.30;99.90;;;;;;4917312;29;20056;-75
2022/01/25 11:53:24;;;;;;;18.53;5.83;;;2.20;99.90;;;;;;4916331;29;20056;-75
2022/01/25 11:55:55;;;;;;;12.70;5.78;;;2.10;99.90;;;;;;4916835;29;20047;-75
2022/01/25 11:58:31;;;;;;;13.35;5.38;;;2.20;99.90;;;;;;4913091;29;20459;-75
2022/01/25 12:01:02;;;;;;;13.50;6.32;;;2.00;99.90;;;;;;4903070;29;20079;-75
2022/01/25 12:03:37;;;;;;;17.92;6.18;;;2.00;99.90;;;;;;4917425;29;20388;-76
2022/01/25 12:06:20;;;;;;;13.93;5.50;;;2.00;99.90;;;;;;4930049;29;20414;-76
2022/01/25 12:09:13;;;;;;;12.65;4.55;;;2.10;99.90;;;;;;4910651;29;20248;-75
2022/01/25 12:11:45;;;;;;;14.25;6.95;;;1.90;99.90;;;;;;4913524;29;20071;-76
2022/01/25 12:14:21;;;;;;;15.20;6.63;;;2.00;99.90;;;;;;4914888;29;20510;-76
2022/01/25 12:16:53;;;;;;;19.58;6.72;;;2.00;99.90;;;;;;4912184;29;20048;-76
2022/01/25 12:19:35;;;;;;;11.63;3.93;;;2.00;99.90;;;;;;4913882;29;20043;-75
2022/01/25 12:22:11;;;;;;;20.08;6.03;;;1.90;99.90;;;;;;4917502;29;20051;-76
2022/01/25 12:25:01;;;;;;;17.23;6.30;;;2.00;99.90;;;;;;4919598;29;20135;-76
2022/01/25 12:27:46;;;;;;;19.40;7.28;;;2.00;99.90;;;;;;4914253;29;20050;-76
2022/01/25 12:33:29;;;;;;;16.43;6.20;;;2.10;99.90;;;;;;4902343;29;20606;-75
2022/01/25 12:36:07;;;;;;;27.55;8.55;;;2.10;99.90;;;;;;4913548;29;20099;-76
2022/01/25 12:39:09;;;;;;;15.77;5.28;;;2.10;99.90;;;;;;4931505;29;20062;-76
2022/01/25 12:41:38;;;;;;;13.93;7.47;;;2.30;99.90;;;;;;4900421;29;20040;-75
2022/01/25 12:44:10;;;;;;;21.88;6.47;;;2.40;99.90;;;;;;4915678;29;20043;-75
2022/01/25 12:46:40;;;;;;;15.63;6.70;;;2.40;99.90;;;;;;4914519;29;20052;-76
2022/01/25 12:49:13;;;;;;;23.92;7.93;;;2.50;99.90;;;;;;4919719;29;20070;-76
2022/01/25 12:51:44;;;;;;;20.27;7.47;;;2.60;99.90;;;;;;4915168;29;20052;-76
2022/01/25 12:54:17;;;;;;;22.77;6.28;;;2.50;99.90;;;;;;4932438;29;20161;-76
2022/01/25 12:56:48;;;;;;;32.78;8.25;;;2.60;99.90;;;;;;4915615;29;20387;-76
2022/01/25 12:59:23;;;;;;;23.67;9.37;;;2.60;99.90;;;;;;4915955;29;20035;-75
2022/01/25 13:01:55;;;;;;;19.92;7.55;;;2.30;99.90;;;;;;4910788;29;20048;-75
2022/01/25 13:04:24;;;;;;;25.92;8.52;;;2.40;99.90;;;;;;4919159;29;20144;-76
2022/01/25 13:06:54;;;;;;;30.65;8.82;;;2.50;99.90;;;;;;4904782;29;20110;-75
2022/01/25 13:09:27;;;;;;;18.95;6.55;;;2.30;99.90;;;;;;4935530;29;20086;-75
2022/01/25 13:12:13;;;;;;;19.77;6.63;;;2.20;99.90;;;;;;4919255;29;20059;-75
2022/01/25 13:14:50;;;;;;;26.63;8.77;;;2.30;99.90;;;;;;4915999;29;20051;-76
2022/01/25 13:17:44;;;;;;;17.35;6.38;;;2.40;99.90;;;;;;4935635;29;20039;-76
2022/01/25 13:20:14;;;;;;;25.42;7.63;;;2.40;99.90;;;;;;4917984;29;20052;-76
2022/01/25 13:22:46;;;;;;;20.58;8.80;;;2.40;99.90;;;;;;4900545;29;20050;-75
2022/01/25 13:25:27;;;;;;;14.27;6.20;;;2.50;99.90;;;;;;4903739;29;20054;-76
2022/01/25 13:27:59;;;;;;;24.60;8.10;;;2.50;99.90;;;;;;4920367;29;20055;-76
2022/01/25 13:30:54;;;;;;;19.65;8.25;;;2.50;99.90;;;;;;4917696;29;20063;-76
2022/01/25 13:33:23;;;;;;;19.13;6.72;;;2.50;99.90;;;;;;4936262;29;20517;-76
2022/01/25 13:35:56;;;;;;;18.80;7.75;;;2.40;99.90;;;;;;4904087;29;20044;-76
2022/01/25 13:38:29;;;;;;;15.97;6.13;;;2.50;99.90;;;;;;4919648;29;20073;-75
2022/01/25 13:46:41;;;;;;;18.33;7.57;;;2.30;99.90;;;;;;4905081;29;20060;-76
2022/01/25 13:49:15;;;;;;;20.60;7.00;;;2.30;99.90;;;;;;4932033;29;20051;-76
2022/01/25 13:51:48;;;;;;;20.47;7.03;;;2.30;99.90;;;;;;4904602;29;20051;-76
2022/01/25 13:54:25;;;;;;;12.80;5.70;;;2.30;99.90;;;;;;4936485;29;20087;-76
2022/01/25 13:56:57;;;;;;;19.50;7.28;;;2.20;99.90;;;;;;4911598;29;20095;-76
2022/01/25 13:59:27;;;;;;;18.83;7.75;;;2.20;99.90;;;;;;4909591;29;20056;-76
2022/01/25 14:01:57;;;;;;;21.63;7.32;;;2.20;99.90;;;;;;4907634;29;20044;-76
2022/01/25 14:04:31;;;;;;;24.77;8.53;;;2.30;99.90;;;;;;4901149;29;20055;-76
2022/01/25 14:07:03;;;;;;;21.90;7.72;;;2.30;99.90;;;;;;4917890;29;20047;-75
2022/01/25 14:09:39;;;;;;;20.88;9.73;;;2.40;99.90;;;;;;4917747;29;20051;-76
2022/01/25 14:23:30;;;;;;;18.85;6.57;;;2.00;99.90;;;;;;4915569;29;20057;-76
2022/01/25 14:26:06;;;;;;;15.95;7.43;;;1.90;99.90;;;;;;4917662;29;20040;-74
2022/01/25 14:28:51;;;;;;;27.02;9.57;;;1.90;99.90;;;;;;4900585;29;20458;-76
2022/01/25 14:31:22;;;;;;;17.33;7.83;;;1.90;99.90;;;;;;4898038;29;20055;-76
2022/01/25 14:33:59;;;;;;;25.05;9.18;;;2.00;99.90;;;;;;4897477;29;20056;-76
2022/01/25 14:36:29;;;;;;;30.52;9.50;;;2.10;99.90;;;;;;4915554;29;20044;-76
2022/01/25 14:38:59;;;;;;;19.48;7.95;;;2.10;99.90;;;;;;4902450;29;20135;-76
2022/01/25 14:41:32;;;;;;;26.38;8.63;;;2.10;99.90;;;;;;4878059;29;20059;-75
2022/01/25 14:44:04;;;;;;;22.90;9.60;;;2.20;99.90;;;;;;4882033;29;20104;-75
2022/01/25 14:46:35;;;;;;;22.88;9.35;;;2.10;99.90;;;;;;4898629;29;20052;-76
2022/01/25 14:49:09;;;;;;;25.42;8.50;;;2.20;99.90;;;;;;4902032;29;20555;-76
2022/01/25 14:51:39;;;;;;;22.40;8.23;;;2.20;99.90;;;;;;4900471;29;20108;-76
2022/01/25 14:54:33;;;;;;;22.80;8.95;;;2.30;99.90;;;;;;4916406;29;20044;-76
2022/01/25 14:57:09;;;;;;;28.90;9.93;;;2.40;99.90;;;;;;4914496;29;20344;-76
2022/01/25 14:59:46;;;;;;;33.05;8.98;;;2.40;99.90;;;;;;4884372;29;20065;-77
2022/01/25 15:02:18;;;;;;;21.20;9.27;;;2.40;99.90;;;;;;4903903;29;20497;-77
2022/01/25 15:04:51;;;;;;;26.63;10.43;;;2.40;99.90;;;;;;4897202;29;20077;-76
2022/01/25 15:07:22;;;;;;;33.33;10.27;;;2.20;99.90;;;;;;4913654;29;20578;-76
2022/01/25 15:09:56;;;;;;;28.90;11.60;;;2.20;99.90;;;;;;4883902;29;20463;-76
2022/01/25 15:12:32;;;;;;;26.73;9.38;;;2.20;99.90;;;;;;4880489;29;20099;-76
2022/01/25 15:15:08;;;;;;;28.85;9.23;;;2.30;99.90;;;;;;4898533;29;20071;-76